Time;durP1;ratioP1;P1;durP2;ratioP2;P2;SDS_P1;SDS_P2;PMS_P1;PMS_P2;Temp;Humidity;BMP_temperature;BMP_pressure;BME280_temperature;BME280_humidity;BME280_pressure;Samples;Min_cycle;Max_cycle;Signal;HPM_P1;HPM_P2
2022/01/26 00:06:10;;;;;;;18.43;10.80;;;15.10;61.60;;;;;;5019077;28;20522;-86
2022/01/26 00:08:39;;;;;;;23.27;11.50;;;15.10;61.70;;;;;;5019571;28;20433;-86
2022/01/26 00:11:09;;;;;;;18.37;11.70;;;15.00;61.70;;;;;;5019133;28;20482;-86
2022/01/26 00:13:37;;;;;;;17.70;11.20;;;15.10;61.60;;;;;;5019566;28;20468;-86
2022/01/26 00:16:09;;;;;;;16.63;11.23;;;15.10;61.60;;;;;;5018369;28;20471;-85
2022/01/26 00:18:38;;;;;;;19.50;10.67;;;15.10;61.60;;;;;;5018652;28;20464;-85
2022/01/26 00:21:12;;;;;;;20.27;11.33;;;15.10;61.60;;;;;;5017187;28;20506;-86
2022/01/26 00:24:07;;;;;;;18.93;11.27;;;15.10;61.60;;;;;;5019469;28;20469;-86
2022/01/26 00:26:59;;;;;;;18.67;10.83;;;15.10;61.60;;;;;;5019401;28;20461;-85
2022/01/26 00:29:25;;;;;;;20.23;11.20;;;15.10;61.50;;;;;;5016526;28;20469;-86
2022/01/26 00:40:25;;;;;;;18.27;11.23;;;15.00;61.70;;;;;;5018100;28;20445;-85
2022/01/26 00:42:59;;;;;;;16.97;10.60;;;15.00;61.60;;;;;;5017581;28;20435;-86
2022/01/26 00:45:35;;;;;;;15.27;9.97;;;15.00;61.50;;;;;;5017883;28;20429;-86
2022/01/26 00:48:05;;;;;;;19.77;10.90;;;15.00;61.60;;;;;;5018817;28;20505;-86
2022/01/26 00:50:34;;;;;;;17.67;10.60;;;15.00;61.70;;;;;;5018450;28;20495;-86
2022/01/26 00:53:02;;;;;;;21.20;11.40;;;15.00;61.70;;;;;;5019179;28;20464;-85
2022/01/26 00:55:30;;;;;;;19.50;11.20;;;15.00;61.60;;;;;;5017618;28;20479;-86
2022/01/26 00:57:59;;;;;;;17.40;10.43;;;15.00;61.50;;;;;;5016828;28;20441;-86
2022/01/26 01:12:45;;;;;;;17.17;10.67;;;14.90;61.70;;;;;;5006425;28;20467;-86
2022/01/26 01:15:14;;;;;;;16.50;10.17;;;14.90;61.60;;;;;;5016442;28;20464;-86
2022/01/26 01:17:47;;;;;;;16.40;10.60;;;14.90;61.60;;;;;;5018026;28;20487;-85
2022/01/26 01:20:31;;;;;;;19.07;10.37;;;14.90;61.80;;;;;;5015634;28;20479;-85
2022/01/26 01:23:24;;;;;;;17.90;10.43;;;14.90;61.70;;;;;;5020500;28;21004;-86
2022/01/26 01:26:19;;;;;;;17.30;10.87;;;14.90;61.80;;;;;;5015836;28;20452;-86
2022/01/26 01:29:08;;;;;;;18.50;10.23;;;14.90;61.70;;;;;;5017740;28;20436;-86
2022/01/26 01:31:44;;;;;;;17.27;10.73;;;15.00;61.70;;;;;;5017180;28;20421;-86
2022/01/26 01:34:14;;;;;;;19.93;11.07;;;14.90;61.50;;;;;;5017703;28;20467;-87
2022/01/26 01:36:44;;;;;;;18.43;10.33;;;14.90;61.60;;;;;;5015582;28;20429;-86
2022/01/26 01:39:14;;;;;;;19.10;10.60;;;14.90;61.40;;;;;;5015829;28;20448;-85
2022/01/26 01:41:43;;;;;;;16.97;10.30;;;15.00;61.80;;;;;;5016656;28;20487;-86
2022/01/26 01:44:11;;;;;;;20.60;10.90;;;15.00;61.50;;;;;;5016953;28;20456;-86
2022/01/26 01:46:41;;;;;;;17.00;9.47;;;15.00;61.60;;;;;;5017831;28;20436;-86
2022/01/26 01:49:11;;;;;;;16.30;10.77;;;15.00;61.50;;;;;;5018845;28;20475;-85
2022/01/26 01:51:43;;;;;;;14.53;10.20;;;15.00;61.50;;;;;;5018681;28;20802;-86
2022/01/26 01:54:15;;;;;;;17.27;10.60;;;15.00;61.60;;;;;;5017823;28;20499;-86
2022/01/26 01:56:43;;;;;;;16.53;10.70;;;15.00;61.60;;;;;;5017707;28;20460;-86
2022/01/26 01:59:11;;;;;;;18.10;10.90;;;14.90;61.40;;;;;;5016105;28;20483;-85
2022/01/26 02:01:40;;;;;;;18.10;10.33;;;15.00;61.60;;;;;;5018360;28;20445;-85
2022/01/26 02:04:09;;;;;;;15.73;10.00;;;14.90;61.40;;;;;;5018835;28;20472;-85
2022/01/26 02:06:37;;;;;;;17.10;10.10;;;14.90;61.40;;;;;;5018609;28;20487;-85
2022/01/26 02:09:06;;;;;;;18.33;10.60;;;14.90;61.60;;;;;;5018259;28;20467;-86
2022/01/26 02:11:34;;;;;;;14.60;9.40;;;14.90;61.40;;;;;;5020185;28;20491;-86
2022/01/26 02:14:06;;;;;;;16.33;10.80;;;15.00;62.20;;;;;;5020933;28;20480;-85
2022/01/26 02:16:44;;;;;;;20.07;11.60;;;15.00;61.40;;;;;;5016490;28;20507;-85
2022/01/26 02:52:49;;;;;;;16.83;9.97;;;14.90;61.50;;;;;;5010788;28;20511;-85
2022/01/26 02:55:34;;;;;;;13.27;9.23;;;14.90;61.60;;;;;;5020795;28;20512;-85
2022/01/26 02:58:23;;;;;;;16.63;9.87;;;14.80;61.30;;;;;;5020903;28;20535;-86
2022/01/26 03:01:02;;;;;;;16.50;9.60;;;14.90;61.40;;;;;;5017860;28;20452;-85
2022/01/26 03:03:35;;;;;;;14.73;9.90;;;14.90;61.80;;;;;;5016340;28;20820;-85
2022/01/26 03:06:08;;;;;;;17.67;10.40;;;14.90;61.40;;;;;;5023176;28;20483;-85
2022/01/26 03:08:40;;;;;;;15.83;9.67;;;14.90;61.30;;;;;;5018778;28;20491;-85
2022/01/26 03:11:12;;;;;;;14.70;9.57;;;14.80;61.10;;;;;;5023822;28;20455;-85
2022/01/26 03:13:45;;;;;;;16.30;10.13;;;14.90;61.40;;;;;;5028352;28;20502;-85
2022/01/26 03:16:17;;;;;;;14.37;9.23;;;14.90;61.20;;;;;;5022875;28;20455;-86
2022/01/26 03:18:56;;;;;;;14.90;9.20;;;14.90;61.30;;;;;;5025427;28;20443;-86
2022/01/26 03:21:31;;;;;;;16.87;9.97;;;14.90;61.30;;;;;;5017399;28;20448;-85
2022/01/26 03:29:55;;;;;;;16.00;10.03;;;14.80;61.20;;;;;;5019964;28;20460;-85
2022/01/26 03:35:15;;;;;;;15.43;8.97;;;14.80;61.30;;;;;;5019898;28;20555;-85
2022/01/26 03:37:51;;;;;;;15.47;8.90;;;14.80;61.40;;;;;;5020564;28;20504;-85
2022/01/26 03:40:19;;;;;;;14.47;9.33;;;14.80;61.40;;;;;;5017786;28;20487;-85
2022/01/26 03:42:49;;;;;;;16.47;9.53;;;14.80;61.30;;;;;;5019231;28;20451;-85
2022/01/26 03:45:17;;;;;;;16.10;9.77;;;14.80;61.30;;;;;;5019757;28;20429;-85
2022/01/26 03:47:45;;;;;;;16.23;9.93;;;14.80;61.20;;;;;;5019429;28;20473;-85
2022/01/26 03:50:13;;;;;;;16.10;9.87;;;14.80;61.10;;;;;;5019064;28;20478;-85
2022/01/26 03:52:42;;;;;;;14.80;9.27;;;14.80;61.10;;;;;;5019914;28;20989;-85
2022/01/26 03:55:10;;;;;;;12.90;9.20;;;14.80;61.10;;;;;;5020451;28;20982;-85
2022/01/26 03:57:39;;;;;;;13.63;9.30;;;14.80;61.20;;;;;;5017381;28;20456;-85
2022/01/26 04:00:11;;;;;;;15.43;8.80;;;14.80;61.10;;;;;;5018652;28;20464;-85
2022/01/26 04:02:39;;;;;;;13.90;8.70;;;14.80;60.90;;;;;;5019330;28;20540;-85
2022/01/26 04:05:11;;;;;;;12.90;8.60;;;14.80;61.10;;;;;;5019700;28;20480;-85
2022/01/26 04:07:40;;;;;;;16.60;9.13;;;14.80;61.10;;;;;;5020006;28;20425;-85
2022/01/26 04:10:17;;;;;;;13.43;8.80;;;14.80;61.10;;;;;;5019810;28;20468;-86
2022/01/26 04:12:45;;;;;;;12.57;8.40;;;14.80;61.20;;;;;;5025477;28;20459;-86
2022/01/26 04:15:24;;;;;;;13.83;8.67;;;14.80;61.10;;;;;;5014309;28;20511;-85
2022/01/26 04:17:52;;;;;;;12.97;8.27;;;14.80;61.10;;;;;;5014348;28;20461;-85
2022/01/26 04:20:24;;;;;;;12.30;8.33;;;14.80;61.00;;;;;;5014396;28;20475;-85
2022/01/26 04:23:05;;;;;;;12.03;8.07;;;14.80;61.20;;;;;;5014470;28;20433;-84
2022/01/26 04:25:33;;;;;;;14.80;8.77;;;14.80;61.10;;;;;;5014259;28;20460;-84
2022/01/26 04:28:06;;;;;;;11.27;8.07;;;14.70;60.90;;;;;;5014442;28;20487;-84
2022/01/26 04:30:35;;;;;;;19.83;9.43;;;14.80;61.10;;;;;;5011831;28;20464;-85
2022/01/26 04:33:05;;;;;;;15.67;9.03;;;14.80;61.10;;;;;;5012856;28;20436;-84
2022/01/26 04:35:33;;;;;;;15.23;9.47;;;14.80;61.10;;;;;;5014757;28;20527;-85
2022/01/26 04:38:14;;;;;;;12.77;8.20;;;14.80;61.00;;;;;;5014422;28;20437;-84
2022/01/26 04:40:50;;;;;;;13.73;8.70;;;14.70;60.80;;;;;;5014566;28;20444;-84
2022/01/26 04:43:23;;;;;;;15.03;8.67;;;14.70;61.00;;;;;;5014292;28;20487;-84
2022/01/26 04:45:53;;;;;;;15.60;8.93;;;14.70;60.80;;;;;;5014168;28;20428;-84
2022/01/26 04:48:23;;;;;;;13.53;8.10;;;14.70;60.90;;;;;;5011867;28;20474;-84
2022/01/26 04:50:52;;;;;;;14.27;8.63;;;14.70;60.80;;;;;;5014455;28;20436;-84
2022/01/26 04:53:20;;;;;;;13.20;7.97;;;14.70;60.80;;;;;;5014951;28;20448;-85
2022/01/26 04:55:48;;;;;;;12.73;7.97;;;14.70;61.00;;;;;;5018174;28;20440;-85
2022/01/26 04:58:16;;;;;;;14.37;9.57;;;14.70;60.90;;;;;;5018775;28;20440;-85
2022/01/26 05:00:45;;;;;;;12.53;7.90;;;14.70;60.90;;;;;;5016132;28;20457;-85
2022/01/26 05:03:14;;;;;;;12.63;8.50;;;14.60;60.80;;;;;;5026562;28;20481;-85
2022/01/26 05:05:42;;;;;;;13.87;8.10;;;14.60;60.70;;;;;;5021891;28;20487;-85
2022/01/26 05:08:10;;;;;;;13.63;8.30;;;14.60;60.80;;;;;;5020120;28;20471;-85
2022/01/26 05:21:18;;;;;;;12.90;8.30;;;14.60;60.70;;;;;;5112682;27;20310;-82
2022/01/26 05:23:46;;;;;;;12.60;8.80;;;14.70;60.30;;;;;;5106169;28;20464;-82
2022/01/26 05:26:14;;;;;;;13.20;8.47;;;14.60;60.70;;;;;;5111753;28;20470;-82
2022/01/26 05:28:42;;;;;;;13.90;8.60;;;14.60;60.70;;;;;;5112428;28;20423;-82
2022/01/26 05:31:10;;;;;;;13.23;8.87;;;14.50;60.70;;;;;;5112574;28;20523;-82
2022/01/26 05:33:39;;;;;;;13.70;8.43;;;14.50;60.70;;;;;;5112709;28;20468;-82
2022/01/26 05:36:06;;;;;;;12.70;8.87;;;14.50;60.70;;;;;;5112266;28;20431;-82
2022/01/26 05:38:36;;;;;;;13.90;8.77;;;14.60;60.70;;;;;;5112379;28;20471;-82
2022/01/26 05:41:04;;;;;;;15.67;9.10;;;14.60;60.60;;;;;;5106184;28;20798;-82
2022/01/26 05:43:33;;;;;;;15.90;8.13;;;14.50;60.50;;;;;;5112435;28;20483;-82
2022/01/26 05:46:05;;;;;;;13.87;8.40;;;14.50;60.70;;;;;;5112513;28;20420;-82
2022/01/26 05:48:35;;;;;;;16.77;8.87;;;14.60;60.80;;;;;;5112891;28;20440;-82
2022/01/26 05:51:08;;;;;;;13.87;7.77;;;14.50;60.60;;;;;;5112708;28;20907;-82
2022/01/26 05:53:37;;;;;;;16.17;9.50;;;14.50;60.70;;;;;;5112512;28;20555;-82
2022/01/26 05:56:06;;;;;;;13.90;8.57;;;14.50;60.70;;;;;;5110178;28;20954;-82
2022/01/26 05:58:34;;;;;;;14.03;8.60;;;14.50;60.80;;;;;;5112150;28;20556;-82
2022/01/26 06:01:02;;;;;;;13.00;7.87;;;14.50;60.70;;;;;;5112575;28;20495;-83
2022/01/26 06:03:31;;;;;;;14.73;8.00;;;14.50;60.60;;;;;;5112364;28;20452;-82
2022/01/26 06:05:59;;;;;;;14.23;8.50;;;14.50;60.70;;;;;;5112032;28;20481;-82
2022/01/26 06:08:27;;;;;;;14.77;8.43;;;14.40;60.60;;;;;;5112154;28;20527;-82
2022/01/26 06:10:59;;;;;;;12.50;7.77;;;14.50;60.80;;;;;;5111756;28;20523;-82
2022/01/26 06:13:27;;;;;;;15.40;8.40;;;14.50;60.70;;;;;;5112006;28;20512;-82
2022/01/26 06:15:55;;;;;;;12.30;8.20;;;14.40;60.60;;;;;;5113516;28;20467;-82
2022/01/26 06:18:23;;;;;;;13.97;8.17;;;14.40;60.60;;;;;;5113566;28;20492;-82
2022/01/26 06:20:52;;;;;;;12.73;7.70;;;14.40;60.50;;;;;;5108084;28;20468;-82
2022/01/26 06:23:24;;;;;;;15.53;8.23;;;14.40;60.60;;;;;;5099335;28;20480;-82
2022/01/26 06:25:54;;;;;;;12.57;7.87;;;14.40;60.60;;;;;;5100255;28;20475;-83
2022/01/26 06:28:25;;;;;;;12.30;8.17;;;14.40;60.40;;;;;;5100024;28;20432;-82
2022/01/26 06:30:56;;;;;;;16.10;8.50;;;14.40;60.40;;;;;;5097443;28;20487;-82
2022/01/26 06:33:25;;;;;;;16.83;9.00;;;14.40;60.40;;;;;;5096560;28;20464;-83
2022/01/26 06:35:53;;;;;;;15.47;8.30;;;14.40;60.40;;;;;;5099629;28;20536;-82
2022/01/26 06:38:24;;;;;;;14.30;8.40;;;14.40;60.50;;;;;;5099607;28;20539;-82
2022/01/26 06:40:52;;;;;;;15.73;9.40;;;14.40;60.30;;;;;;5100505;28;20506;-81
2022/01/26 06:43:22;;;;;;;15.67;8.40;;;14.40;60.20;;;;;;5100857;28;20480;-82
2022/01/26 06:45:58;;;;;;;14.70;8.60;;;14.40;60.20;;;;;;5099650;28;20467;-82
2022/01/26 06:48:42;;;;;;;12.83;8.20;;;14.40;60.20;;;;;;5097212;28;20823;-82
2022/01/26 06:51:11;;;;;;;16.27;9.53;;;14.30;60.10;;;;;;5091567;28;20646;-82
2022/01/26 06:53:39;;;;;;;16.30;8.80;;;14.30;60.00;;;;;;5099780;28;20486;-82
2022/01/26 06:56:08;;;;;;;12.80;8.20;;;14.30;60.10;;;;;;5099381;28;20468;-82
2022/01/26 06:58:36;;;;;;;16.67;8.90;;;14.30;60.10;;;;;;5098635;28;20425;-82
2022/01/26 07:01:06;;;;;;;13.90;8.10;;;14.30;60.10;;;;;;5098686;28;20471;-82
2022/01/26 07:03:34;;;;;;;15.27;8.43;;;14.30;60.00;;;;;;5098689;28;20448;-82
2022/01/26 07:06:02;;;;;;;15.27;9.50;;;14.30;59.90;;;;;;5096323;28;20469;-82
2022/01/26 07:08:30;;;;;;;14.67;8.73;;;14.30;60.00;;;;;;5100944;28;20483;-83
2022/01/26 07:10:59;;;;;;;15.10;8.87;;;14.30;59.90;;;;;;5101789;28;20464;-83
2022/01/26 07:13:28;;;;;;;14.23;9.10;;;14.30;59.90;;;;;;5100337;28;20461;-83
2022/01/26 07:21:29;;;;;;;13.63;8.13;;;14.30;60.00;;;;;;5099193;28;20508;-83
2022/01/26 07:23:58;;;;;;;14.33;8.60;;;14.30;59.80;;;;;;5092362;28;20493;-83
2022/01/26 07:26:27;;;;;;;14.23;8.40;;;14.30;59.90;;;;;;5097982;28;20429;-83
2022/01/26 07:28:55;;;;;;;16.70;9.60;;;14.30;60.00;;;;;;5098506;28;20476;-83
2022/01/26 07:31:23;;;;;;;16.20;8.60;;;14.30;60.00;;;;;;5098620;28;20499;-83
2022/01/26 07:33:54;;;;;;;17.30;9.57;;;14.20;59.90;;;;;;5097625;28;20484;-83
2022/01/26 07:36:22;;;;;;;15.27;9.10;;;14.30;60.10;;;;;;5099639;28;20475;-83
2022/01/26 07:38:52;;;;;;;15.97;9.13;;;14.30;59.90;;;;;;5098436;28;20436;-83
2022/01/26 07:41:22;;;;;;;15.13;8.10;;;14.30;60.00;;;;;;5090652;28;20479;-83
2022/01/26 07:43:51;;;;;;;16.33;9.50;;;14.20;59.90;;;;;;5098223;28;20449;-83
2022/01/26 07:46:19;;;;;;;16.33;8.33;;;14.30;59.80;;;;;;5098433;28;20445;-83
2022/01/26 07:48:47;;;;;;;12.40;8.10;;;14.30;59.90;;;;;;5097842;28;20528;-83
2022/01/26 07:51:16;;;;;;;16.73;9.80;;;14.30;59.90;;;;;;5098066;28;20555;-83
2022/01/26 07:53:45;;;;;;;17.67;9.57;;;14.30;59.70;;;;;;5098562;28;20475;-83
2022/01/26 07:56:13;;;;;;;15.33;9.30;;;14.30;59.90;;;;;;5096628;28;20441;-83
2022/01/26 07:58:42;;;;;;;16.80;9.20;;;14.30;59.90;;;;;;5086667;28;20444;-83
2022/01/26 08:01:10;;;;;;;20.20;9.63;;;14.30;59.80;;;;;;5098137;28;20440;-83
2022/01/26 08:03:38;;;;;;;17.17;9.27;;;14.30;59.70;;;;;;5098332;28;20464;-84
2022/01/26 08:06:10;;;;;;;16.17;9.43;;;14.30;59.70;;;;;;5098154;28;20444;-83
2022/01/26 08:08:40;;;;;;;18.33;9.50;;;14.20;59.60;;;;;;5097716;28;20445;-84
2022/01/26 08:11:08;;;;;;;18.47;9.50;;;14.30;59.70;;;;;;5097646;28;20496;-83
2022/01/26 08:13:36;;;;;;;18.67;9.83;;;14.20;59.60;;;;;;5091437;28;20470;-83
2022/01/26 08:16:04;;;;;;;18.10;10.00;;;14.20;60.10;;;;;;5096385;28;20429;-83
2022/01/26 08:18:32;;;;;;;18.17;9.57;;;14.20;59.70;;;;;;5098225;28;20468;-83
2022/01/26 08:21:05;;;;;;;18.73;8.93;;;14.20;59.70;;;;;;5098324;28;20479;-83
2022/01/26 08:23:35;;;;;;;17.37;9.73;;;14.20;59.60;;;;;;5097779;28;20483;-83
2022/01/26 08:26:04;;;;;;;26.10;11.10;;;14.20;59.60;;;;;;5098190;28;20464;-84
2022/01/26 08:28:36;;;;;;;19.90;9.60;;;14.20;59.60;;;;;;5098021;28;20432;-83
2022/01/26 08:31:05;;;;;;;17.80;9.73;;;14.20;59.80;;;;;;5092688;28;20516;-83
2022/01/26 08:33:36;;;;;;;19.90;10.00;;;14.30;59.60;;;;;;5093496;28;20464;-83
2022/01/26 08:36:05;;;;;;;18.60;9.60;;;14.20;59.60;;;;;;5097344;28;20429;-83
2022/01/26 08:38:33;;;;;;;17.37;10.30;;;14.20;59.60;;;;;;5097470;28;20432;-83
2022/01/26 08:41:02;;;;;;;18.47;9.77;;;14.20;59.70;;;;;;5097515;28;20444;-83
2022/01/26 08:43:31;;;;;;;19.47;9.03;;;14.20;59.40;;;;;;5096618;28;20472;-83
2022/01/26 08:45:59;;;;;;;18.10;9.30;;;14.20;59.40;;;;;;5097603;28;20464;-84
2022/01/26 08:48:27;;;;;;;18.33;10.13;;;14.20;59.60;;;;;;5095092;28;20474;-83
2022/01/26 08:50:55;;;;;;;16.53;9.20;;;14.30;59.50;;;;;;5095070;28;20469;-83
2022/01/26 08:53:23;;;;;;;19.13;9.83;;;14.30;59.50;;;;;;5097010;28;20510;-83
2022/01/26 08:55:52;;;;;;;16.87;9.17;;;14.20;59.40;;;;;;5097818;28;20449;-83
2022/01/26 08:58:20;;;;;;;17.20;9.80;;;14.20;59.40;;;;;;5096956;28;20449;-83
2022/01/26 09:00:50;;;;;;;19.03;10.27;;;14.20;59.40;;;;;;5097438;28;20425;-83
2022/01/26 09:03:19;;;;;;;19.30;10.10;;;14.30;59.50;;;;;;5097575;28;20464;-84
2022/01/26 09:05:47;;;;;;;17.53;9.87;;;14.30;59.60;;;;;;5093942;28;20444;-84
2022/01/26 09:08:17;;;;;;;15.57;8.60;;;14.30;59.40;;;;;;5097726;28;20440;-83
2022/01/26 09:10:45;;;;;;;19.20;9.77;;;14.30;59.60;;;;;;5097247;28;20447;-83
2022/01/26 09:13:13;;;;;;;18.20;10.07;;;14.30;59.60;;;;;;5097351;28;20480;-83
2022/01/26 09:15:42;;;;;;;24.77;11.00;;;14.30;59.50;;;;;;5097059;28;20804;-83
2022/01/26 09:18:17;;;;;;;19.30;10.40;;;14.20;59.50;;;;;;5096756;28;20870;-83
2022/01/26 09:20:46;;;;;;;19.30;10.57;;;14.20;59.40;;;;;;5097159;28;20505;-83
2022/01/26 09:23:14;;;;;;;19.30;9.63;;;14.20;59.60;;;;;;5094755;28;20469;-83
2022/01/26 09:25:41;;;;;;;16.87;9.53;;;14.20;59.50;;;;;;5095813;28;20484;-83
2022/01/26 09:28:10;;;;;;;21.30;10.73;;;14.20;59.60;;;;;;5097081;28;20429;-83
2022/01/26 09:30:38;;;;;;;16.67;9.53;;;14.30;59.60;;;;;;5096957;28;20486;-83
2022/01/26 09:33:05;;;;;;;23.40;9.70;;;14.20;59.60;;;;;;5096150;28;20433;-83
2022/01/26 09:35:35;;;;;;;18.63;9.47;;;14.20;59.60;;;;;;5097194;28;20425;-83
2022/01/26 09:38:03;;;;;;;18.03;10.10;;;14.30;59.70;;;;;;5097117;28;20534;-83
2022/01/26 09:40:31;;;;;;;17.03;9.53;;;14.30;59.60;;;;;;5088367;28;20480;-83
2022/01/26 09:43:00;;;;;;;18.07;9.00;;;14.30;59.50;;;;;;5096216;28;20468;-83
2022/01/26 09:45:29;;;;;;;20.70;10.50;;;14.20;59.40;;;;;;5096617;28;20425;-83
2022/01/26 09:47:57;;;;;;;19.93;10.60;;;14.20;59.60;;;;;;5096590;28;20465;-83
2022/01/26 09:50:33;;;;;;;16.13;8.80;;;14.20;60.00;;;;;;5097370;28;20424;-85
2022/01/26 09:53:03;;;;;;;16.53;9.33;;;14.20;59.40;;;;;;5098660;28;20464;-85
2022/01/26 09:55:31;;;;;;;20.17;9.40;;;14.20;59.60;;;;;;5099111;28;20462;-85
2022/01/26 09:58:05;;;;;;;19.77;10.17;;;14.20;59.70;;;;;;5100733;28;20462;-85
2022/01/26 10:00:33;;;;;;;19.87;9.37;;;14.10;59.50;;;;;;5109029;28;20445;-85
2022/01/26 10:03:03;;;;;;;18.00;9.83;;;14.20;59.60;;;;;;5098091;28;20465;-85
2022/01/26 10:05:40;;;;;;;21.53;10.67;;;14.20;59.50;;;;;;5095530;28;20429;-85
2022/01/26 10:08:23;;;;;;;20.70;10.30;;;14.20;59.50;;;;;;5095868;28;20424;-86
2022/01/26 10:17:09;;;;;;;21.73;10.53;;;14.20;59.50;;;;;;5092089;28;20472;-85
2022/01/26 10:19:27;;;;;;;18.47;9.43;;;14.20;59.40;;;;;;5096760;28;20562;-85
2022/01/26 10:21:55;;;;;;;21.03;10.43;;;14.20;59.40;;;;;;5096689;28;20471;-85
2022/01/26 10:24:28;;;;;;;19.10;10.13;;;14.30;59.50;;;;;;5096291;28;20510;-85
2022/01/26 10:26:58;;;;;;;20.53;10.23;;;14.20;59.30;;;;;;5096452;28;20931;-85
2022/01/26 10:29:27;;;;;;;23.17;11.07;;;14.30;59.40;;;;;;5096357;28;20428;-85
2022/01/26 10:31:58;;;;;;;22.33;11.60;;;14.30;59.30;;;;;;5092726;28;20502;-85
2022/01/26 10:34:27;;;;;;;21.67;11.57;;;14.30;59.40;;;;;;5097557;28;20444;-85
2022/01/26 10:36:57;;;;;;;19.67;10.90;;;14.30;59.40;;;;;;5098434;28;20462;-85
2022/01/26 10:39:30;;;;;;;26.50;11.20;;;14.30;59.50;;;;;;5097127;28;20452;-85
2022/01/26 10:42:02;;;;;;;20.13;10.80;;;14.30;59.40;;;;;;5097428;28;20487;-84
2022/01/26 10:44:32;;;;;;;19.53;10.53;;;14.30;59.40;;;;;;5097716;28;20457;-85
2022/01/26 10:47:03;;;;;;;18.70;10.30;;;14.30;59.40;;;;;;5098397;28;20439;-84
2022/01/26 10:50:06;;;;;;;20.50;10.70;;;14.30;59.40;;;;;;5078098;28;20441;-85
2022/01/26 10:52:35;;;;;;;23.60;11.10;;;14.30;59.40;;;;;;5077053;28;20469;-85
2022/01/26 10:55:06;;;;;;;24.10;11.50;;;14.30;59.30;;;;;;5077965;28;20466;-85
2022/01/26 10:57:43;;;;;;;18.90;9.60;;;14.30;59.40;;;;;;5078358;28;20438;-85
2022/01/26 11:00:12;;;;;;;23.20;10.67;;;14.40;59.40;;;;;;5077767;28;20414;-85
2022/01/26 11:02:43;;;;;;;18.13;9.93;;;14.40;59.40;;;;;;5078099;28;20446;-85
2022/01/26 11:05:12;;;;;;;18.23;10.87;;;14.40;59.40;;;;;;5088075;28;20483;-85
2022/01/26 11:07:41;;;;;;;18.47;10.40;;;14.40;59.40;;;;;;5097590;28;20429;-85
2022/01/26 11:10:12;;;;;;;23.50;11.47;;;14.40;59.40;;;;;;5098841;28;20468;-85
2022/01/26 11:12:41;;;;;;;21.30;11.30;;;14.40;59.30;;;;;;5098056;28;20469;-85
2022/01/26 11:15:11;;;;;;;20.97;10.80;;;14.40;59.30;;;;;;5098599;28;20513;-85
2022/01/26 11:17:42;;;;;;;20.80;11.00;;;14.40;59.30;;;;;;5099641;28;20502;-85
2022/01/26 11:20:19;;;;;;;21.03;10.90;;;14.40;59.40;;;;;;5100575;28;20437;-85
2022/01/26 11:22:51;;;;;;;21.80;11.03;;;14.50;59.30;;;;;;5096453;28;20497;-85
2022/01/26 11:25:21;;;;;;;22.07;11.00;;;14.40;59.50;;;;;;5100347;28;20440;-85
2022/01/26 11:27:49;;;;;;;19.70;11.00;;;14.40;59.20;;;;;;5099930;28;20470;-85
2022/01/26 11:30:26;;;;;;;21.50;11.73;;;14.50;59.30;;;;;;5100415;28;20443;-85
2022/01/26 11:32:56;;;;;;;23.37;11.90;;;14.40;59.20;;;;;;5099274;28;20472;-85
2022/01/26 11:35:27;;;;;;;22.60;11.77;;;14.40;59.30;;;;;;5099556;28;20514;-86
2022/01/26 11:38:07;;;;;;;21.70;10.93;;;14.50;59.40;;;;;;5099467;28;20429;-85
2022/01/26 11:46:25;;;;;;;24.53;11.77;;;14.40;59.30;;;;;;5079446;28;20438;-85
2022/01/26 11:49:10;;;;;;;22.17;11.97;;;14.40;59.30;;;;;;5081471;28;20442;-85
2022/01/26 12:03:01;;;;;;;25.30;11.93;;;14.50;59.40;;;;;;5025148;28;20521;-85
2022/01/26 12:06:59;;;;;;;22.77;11.10;;;14.40;59.40;;;;;;5028092;28;20440;-85
2022/01/26 12:10:24;;;;;;;22.43;10.80;;;14.40;59.40;;;;;;4957966;28;20447;-85
2022/01/26 12:13:31;;;;;;;22.73;11.30;;;14.40;59.50;;;;;;5009299;28;20477;-85
2022/01/26 12:16:21;;;;;;;21.93;11.00;;;14.50;59.50;;;;;;5095064;28;20456;-85
2022/01/26 12:18:55;;;;;;;26.13;12.57;;;14.50;59.40;;;;;;5099761;28;20448;-85
2022/01/26 12:32:56;;;;;;;24.37;11.97;;;14.50;59.50;;;;;;5087235;28;20460;-85
2022/01/26 12:35:35;;;;;;;25.70;12.20;;;14.50;59.40;;;;;;5095139;28;20437;-85
2022/01/26 12:38:08;;;;;;;23.00;11.93;;;14.50;59.60;;;;;;5092133;28;20494;-86
2022/01/26 12:43:33;;;;;;;24.00;12.80;;;14.50;59.40;;;;;;5089210;28;20523;-86
2022/01/26 12:46:05;;;;;;;26.67;12.90;;;14.50;59.50;;;;;;5087179;28;20445;-85
2022/01/26 12:48:48;;;;;;;26.63;13.67;;;14.50;59.50;;;;;;5077597;28;20452;-85
2022/01/26 12:51:41;;;;;;;22.60;12.00;;;14.50;59.50;;;;;;5089717;28;20460;-85
2022/01/26 12:59:43;;;;;;;25.23;12.90;;;14.60;59.60;;;;;;5037914;28;20455;-83
2022/01/26 13:02:14;;;;;;;26.60;14.00;;;14.60;60.10;;;;;;5046713;28;20439;-82
2022/01/26 13:09:25;;;;;;;;;;;;;;;;;;;;;
2022/01/26 13:16:12;;;;;;;29.67;13.80;;;14.60;59.30;;;;;;5017082;28;20507;-82
2022/01/26 13:23:12;;;;;;;26.63;13.40;;;14.60;59.20;;;;;;5012050;28;20436;-84
2022/01/26 13:26:11;;;;;;;27.23;14.20;;;14.60;59.40;;;;;;4980920;28;20491;-82
2022/01/26 13:28:55;;;;;;;28.90;15.00;;;14.60;59.40;;;;;;5049673;28;20461;-83
2022/01/26 13:32:09;;;;;;;27.90;14.80;;;14.60;59.20;;;;;;5058974;28;20504;-83
2022/01/26 13:34:55;;;;;;;30.00;14.60;;;14.60;59.40;;;;;;5060914;28;20560;-84
2022/01/26 13:38:01;;;;;;;33.17;15.23;;;14.60;59.40;;;;;;5062011;28;20423;-84
2022/01/26 13:40:53;;;;;;;29.80;13.60;;;14.60;59.30;;;;;;5041757;28;20534;-82
2022/01/26 13:52:31;;;;;;;32.07;16.57;;;14.60;59.20;;;;;;5040720;28;20454;-84
2022/01/26 13:58:29;;;;;;;37.40;18.67;;;14.60;59.20;;;;;;5003008;28;20520;-85
2022/01/26 14:01:04;;;;;;;39.50;17.23;;;14.60;59.00;;;;;;5059167;28;20505;-84
2022/01/26 14:03:41;;;;;;;38.40;18.50;;;14.60;59.00;;;;;;5036395;28;20466;-85
2022/01/26 14:06:23;;;;;;;39.10;17.67;;;14.60;58.90;;;;;;5031521;28;20459;-84
2022/01/26 14:08:58;;;;;;;43.00;19.00;;;14.60;59.00;;;;;;5026642;28;20510;-84
2022/01/26 14:11:26;;;;;;;43.83;19.00;;;14.60;59.00;;;;;;5040377;28;20439;-85
2022/01/26 14:14:03;;;;;;;37.83;18.67;;;14.70;58.90;;;;;;5028416;28;20470;-84
2022/01/26 14:16:58;;;;;;;34.53;18.00;;;14.70;58.90;;;;;;5035039;28;20444;-84
2022/01/26 14:19:55;;;;;;;36.53;17.37;;;14.70;59.10;;;;;;5035846;28;20534;-84
2022/01/26 14:22:37;;;;;;;36.80;17.13;;;14.70;58.90;;;;;;5038618;28;20464;-85
2022/01/26 14:25:17;;;;;;;38.63;18.07;;;14.70;59.20;;;;;;5040004;28;20550;-84
2022/01/26 14:31:57;;;;;;;33.37;16.77;;;14.70;59.10;;;;;;5035314;28;20435;-85
2022/01/26 15:35:03;;;;;;;30.97;15.30;;;14.60;59.80;;;;;;5026219;28;20480;-85
2022/01/26 15:40:32;;;;;;;31.57;15.07;;;14.60;59.80;;;;;;5029306;28;20451;-85
2022/01/26 15:49:05;;;;;;;30.97;15.57;;;14.60;59.80;;;;;;5025053;28;20464;-85
2022/01/26 16:04:17;;;;;;;30.17;14.30;;;14.50;59.80;;;;;;4989721;28;20445;-85
2022/01/26 16:08:14;;;;;;;30.33;14.20;;;14.50;60.00;;;;;;5027593;28;20537;-85
2022/01/26 16:16:43;;;;;;;27.17;13.60;;;14.50;59.90;;;;;;5025902;28;20545;-86
2022/01/26 16:53:05;;;;;;;25.27;12.87;;;14.60;60.00;;;;;;5110480;28;20443;-84
2022/01/26 17:13:14;;;;;;;24.33;12.63;;;14.50;60.20;;;;;;5098737;28;20469;-84
2022/01/26 17:43:13;;;;;;;21.77;10.80;;;14.50;60.30;;;;;;5102574;28;20475;-84
2022/01/26 18:16:23;;;;;;;19.57;10.60;;;14.60;60.50;;;;;;5075023;28;20527;-82
2022/01/26 18:32:58;;;;;;;19.90;11.70;;;14.50;60.40;;;;;;5074291;28;20457;-84
2022/01/26 18:49:10;;;;;;;21.87;11.00;;;14.60;60.60;;;;;;5073351;28;20478;-87
2022/01/26 18:49:41;;;;;;;19.80;11.60;;;14.60;60.70;;;;;;5065331;28;20503;-87
2022/01/26 18:52:09;;;;;;;21.53;10.97;;;14.60;60.60;;;;;;5073322;28;20513;-87
2022/01/26 18:54:38;;;;;;;25.87;11.50;;;14.50;60.50;;;;;;5073237;28;20519;-86
2022/01/26 18:57:07;;;;;;;20.73;11.60;;;14.60;60.50;;;;;;5073293;28;20434;-87
2022/01/26 18:59:36;;;;;;;17.47;10.13;;;14.60;60.50;;;;;;5072947;28;20473;-87
2022/01/26 19:02:08;;;;;;;25.27;11.20;;;14.60;60.50;;;;;;5072698;28;20445;-87
2022/01/26 19:04:57;;;;;;;22.10;11.73;;;14.60;60.50;;;;;;5071466;28;20453;-87
2022/01/26 19:07:25;;;;;;;22.23;11.87;;;14.60;60.40;;;;;;5072078;28;20442;-86
2022/01/26 19:09:53;;;;;;;19.73;11.63;;;14.60;60.40;;;;;;5073089;28;20892;-87
2022/01/26 19:12:24;;;;;;;19.23;11.10;;;14.60;60.50;;;;;;5078643;28;20492;-83
2022/01/26 19:15:01;;;;;;;25.03;11.70;;;14.70;60.50;;;;;;5077931;28;20492;-84
2022/01/26 19:17:35;;;;;;;20.43;11.30;;;14.70;60.40;;;;;;5078022;28;20467;-83
2022/01/26 19:20:16;;;;;;;20.37;11.20;;;14.60;60.40;;;;;;5078123;28;20434;-84
2022/01/26 19:22:59;;;;;;;23.63;11.50;;;14.60;60.30;;;;;;5075651;28;21021;-83